sensor_id;sensor_type;location;lat;lon;timestamp;temperature;humidity
16995;DHT22;8614;48.522;9.206;2024-02-15T03:05:12;7.60;99.90
16995;DHT22;8614;48.522;9.206;2024-02-15T03:29:10;7.00;99.90
16995;DHT22;8614;48.522;9.206;2024-02-15T03:31:37;7.00;99.90
16995;DHT22;8614;48.522;9.206;2024-02-15T03:34:04;7.00;99.90
16995;DHT22;8614;48.522;9.206;2024-02-15T03:36:30;7.00;99.90
16995;DHT22;8614;48.522;9.206;2024-02-15T03:38:57;7.00;99.90
16995;DHT22;8614;48.522;9.206;2024-02-15T03:41:27;7.00;99.90
16995;DHT22;8614;48.522;9.206;2024-02-15T03:43:56;7.00;99.90
16995;DHT22;8614;48.522;9.206;2024-02-15T03:46:26;6.90;99.90
16995;DHT22;8614;48.522;9.206;2024-02-15T03:48:53;6.90;99.90
16995;DHT22;8614;48.522;9.206;2024-02-15T03:51:22;7.00;99.90
16995;DHT22;8614;48.522;9.206;2024-02-15T03:53:50;7.00;99.90
16995;DHT22;8614;48.522;9.206;2024-02-15T03:56:17;7.00;99.90
16995;DHT22;8614;48.522;9.206;2024-02-15T03:58:45;7.10;99.90
16995;DHT22;8614;48.522;9.206;2024-02-15T04:01:11;7.10;99.90
16995;DHT22;8614;48.522;9.206;2024-02-15T04:03:42;7.10;99.90
16995;DHT22;8614;48.522;9.206;2024-02-15T04:06:08;7.10;99.90
16995;DHT22;8614;48.522;9.206;2024-02-15T04:08:36;7.10;99.90
16995;DHT22;8614;48.522;9.206;2024-02-15T04:11:04;7.10;99.90
16995;DHT22;8614;48.522;9.206;2024-02-15T04:13:33;7.20;99.90
16995;DHT22;8614;48.522;9.206;2024-02-15T04:16:00;7.20;99.90
16995;DHT22;8614;48.522;9.206;2024-02-15T04:18:26;7.20;99.90
16995;DHT22;8614;48.522;9.206;2024-02-15T04:20:59;7.30;99.90
16995;DHT22;8614;48.522;9.206;2024-02-15T04:23:25;7.40;99.90
16995;DHT22;8614;48.522;9.206;2024-02-15T04:25:52;7.40;99.90
16995;DHT22;8614;48.522;9.206;2024-02-15T04:28:20;7.40;99.90
16995;DHT22;8614;48.522;9.206;2024-02-15T04:30:46;7.40;99.90
16995;DHT22;8614;48.522;9.206;2024-02-15T04:33:14;7.40;99.90
16995;DHT22;8614;48.522;9.206;2024-02-15T04:35:42;7.40;99.90
16995;DHT22;8614;48.522;9.206;2024-02-15T04:38:10;7.40;99.90
16995;DHT22;8614;48.522;9.206;2024-02-15T04:40:37;7.40;99.90
16995;DHT22;8614;48.522;9.206;2024-02-15T04:43:05;7.40;99.90
16995;DHT22;8614;48.522;9.206;2024-02-15T04:45:32;7.40;99.90
16995;DHT22;8614;48.522;9.206;2024-02-15T04:47:59;7.40;99.90
16995;DHT22;8614;48.522;9.206;2024-02-15T04:50:28;7.40;99.90
16995;DHT22;8614;48.522;9.206;2024-02-15T04:52:55;7.40;99.90
16995;DHT22;8614;48.522;9.206;2024-02-15T04:55:23;7.40;99.90
16995;DHT22;8614;48.522;9.206;2024-02-15T04:57:52;7.50;99.90
16995;DHT22;8614;48.522;9.206;2024-02-15T05:00:22;7.50;99.90
16995;DHT22;8614;48.522;9.206;2024-02-15T05:02:51;7.50;99.90
16995;DHT22;8614;48.522;9.206;2024-02-15T05:05:19;7.60;99.90
16995;DHT22;8614;48.522;9.206;2024-02-15T05:07:47;7.60;99.90
16995;DHT22;8614;48.522;9.206;2024-02-15T05:10:15;7.60;99.90
16995;DHT22;8614;48.522;9.206;2024-02-15T05:12:43;7.60;99.90
16995;DHT22;8614;48.522;9.206;2024-02-15T05:15:15;7.60;99.90
16995;DHT22;8614;48.522;9.206;2024-02-15T05:17:43;7.60;99.90
16995;DHT22;8614;48.522;9.206;2024-02-15T05:20:10;7.60;99.90
16995;DHT22;8614;48.522;9.206;2024-02-15T05:22:38;7.60;99.90
16995;DHT22;8614;48.522;9.206;2024-02-15T05:25:09;7.50;99.90
16995;DHT22;8614;48.522;9.206;2024-02-15T05:27:38;7.50;99.90
16995;DHT22;8614;48.522;9.206;2024-02-15T05:30:07;7.50;99.90
16995;DHT22;8614;48.522;9.206;2024-02-15T05:32:34;7.40;99.90
16995;DHT22;8614;48.522;9.206;2024-02-15T05:35:08;7.40;99.90
16995;DHT22;8614;48.522;9.206;2024-02-15T05:37:35;7.30;99.90
16995;DHT22;8614;48.522;9.206;2024-02-15T05:40:01;7.30;99.90
16995;DHT22;8614;48.522;9.206;2024-02-15T05:42:29;7.20;99.90
16995;DHT22;8614;48.522;9.206;2024-02-15T05:45:28;7.20;99.90
16995;DHT22;8614;48.522;9.206;2024-02-15T05:47:58;7.20;99.90
16995;DHT22;8614;48.522;9.206;2024-02-15T05:50:25;7.10;99.90
16995;DHT22;8614;48.522;9.206;2024-02-15T05:52:55;7.10;99.90
16995;DHT22;8614;48.522;9.206;2024-02-15T05:55:23;7.00;99.90
16995;DHT22;8614;48.522;9.206;2024-02-15T05:57:52;7.00;99.90
16995;DHT22;8614;48.522;9.206;2024-02-15T06:00:21;7.00;99.90
16995;DHT22;8614;48.522;9.206;2024-02-15T06:02:48;7.00;99.90
16995;DHT22;8614;48.522;9.206;2024-02-15T06:05:15;7.00;99.90
16995;DHT22;8614;48.522;9.206;2024-02-15T06:07:43;6.90;99.90
16995;DHT22;8614;48.522;9.206;2024-02-15T06:10:11;6.80;99.90
16995;DHT22;8614;48.522;9.206;2024-02-15T06:12:39;6.60;99.90
16995;DHT22;8614;48.522;9.206;2024-02-15T06:15:06;6.60;99.90
16995;DHT22;8614;48.522;9.206;2024-02-15T06:17:41;6.50;99.90
16995;DHT22;8614;48.522;9.206;2024-02-15T06:20:12;6.50;99.90
16995;DHT22;8614;48.522;9.206;2024-02-15T06:22:41;6.40;99.90
16995;DHT22;8614;48.522;9.206;2024-02-15T06:25:08;6.40;99.90
16995;DHT22;8614;48.522;9.206;2024-02-15T06:27:35;6.40;99.90
16995;DHT22;8614;48.522;9.206;2024-02-15T06:30:07;6.30;99.90
16995;DHT22;8614;48.522;9.206;2024-02-15T06:32:53;6.30;99.90
16995;DHT22;8614;48.522;9.206;2024-02-15T06:35:37;6.20;99.90
16995;DHT22;8614;48.522;9.206;2024-02-15T06:38:22;6.20;99.90
16995;DHT22;8614;48.522;9.206;2024-02-15T06:41:07;6.30;99.90
16995;DHT22;8614;48.522;9.206;2024-02-15T06:43:34;6.30;99.90
16995;DHT22;8614;48.522;9.206;2024-02-15T06:46:01;6.30;99.90
16995;DHT22;8614;48.522;9.206;2024-02-15T06:48:29;6.20;99.90
16995;DHT22;8614;48.522;9.206;2024-02-15T06:50:56;6.20;99.90
16995;DHT22;8614;48.522;9.206;2024-02-15T06:53:23;6.20;99.90
16995;DHT22;8614;48.522;9.206;2024-02-15T06:55:50;6.20;99.90
16995;DHT22;8614;48.522;9.206;2024-02-15T06:58:17;6.20;99.90
16995;DHT22;8614;48.522;9.206;2024-02-15T07:00:48;6.30;99.90
16995;DHT22;8614;48.522;9.206;2024-02-15T07:03:15;6.30;99.90
16995;DHT22;8614;48.522;9.206;2024-02-15T07:05:44;6.40;99.90
16995;DHT22;8614;48.522;9.206;2024-02-15T07:08:11;6.50;99.90
16995;DHT22;8614;48.522;9.206;2024-02-15T07:10:39;6.50;99.90
16995;DHT22;8614;48.522;9.206;2024-02-15T07:13:06;6.60;99.90
16995;DHT22;8614;48.522;9.206;2024-02-15T07:15:33;6.80;99.90
16995;DHT22;8614;48.522;9.206;2024-02-15T07:18:04;6.90;99.90
16995;DHT22;8614;48.522;9.206;2024-02-15T07:20:31;7.00;99.90
16995;DHT22;8614;48.522;9.206;2024-02-15T07:22:59;7.20;99.90
16995;DHT22;8614;48.522;9.206;2024-02-15T07:25:26;7.30;99.90
16995;DHT22;8614;48.522;9.206;2024-02-15T07:27:53;7.50;99.90
16995;DHT22;8614;48.522;9.206;2024-02-15T07:30:20;7.70;99.90
16995;DHT22;8614;48.522;9.206;2024-02-15T07:32:48;7.90;99.90
16995;DHT22;8614;48.522;9.206;2024-02-15T07:35:15;8.00;99.90
16995;DHT22;8614;48.522;9.206;2024-02-15T07:37:51;8.20;99.90
16995;DHT22;8614;48.522;9.206;2024-02-15T07:40:22;8.20;99.90
16995;DHT22;8614;48.522;9.206;2024-02-15T07:42:54;8.40;99.90
16995;DHT22;8614;48.522;9.206;2024-02-15T07:45:21;8.50;99.90
16995;DHT22;8614;48.522;9.206;2024-02-15T07:47:48;8.70;99.90
16995;DHT22;8614;48.522;9.206;2024-02-15T07:50:16;9.10;99.90
16995;DHT22;8614;48.522;9.206;2024-02-15T07:52:46;9.40;99.90
16995;DHT22;8614;48.522;9.206;2024-02-15T07:55:13;9.70;99.90
16995;DHT22;8614;48.522;9.206;2024-02-15T07:57:41;10.10;99.90
16995;DHT22;8614;48.522;9.206;2024-02-15T08:00:09;10.40;99.90
16995;DHT22;8614;48.522;9.206;2024-02-15T08:02:37;10.70;99.90
16995;DHT22;8614;48.522;9.206;2024-02-15T08:05:07;11.00;99.90
16995;DHT22;8614;48.522;9.206;2024-02-15T08:07:37;11.50;99.90
16995;DHT22;8614;48.522;9.206;2024-02-15T08:10:05;11.70;99.90
16995;DHT22;8614;48.522;9.206;2024-02-15T08:12:38;11.80;99.90
16995;DHT22;8614;48.522;9.206;2024-02-15T08:15:07;11.90;99.90
16995;DHT22;8614;48.522;9.206;2024-02-15T08:17:38;11.80;99.90
16995;DHT22;8614;48.522;9.206;2024-02-15T08:20:07;12.10;99.90
16995;DHT22;8614;48.522;9.206;2024-02-15T08:22:34;12.50;99.90
16995;DHT22;8614;48.522;9.206;2024-02-15T08:25:06;12.90;99.90
16995;DHT22;8614;48.522;9.206;2024-02-15T08:27:39;13.30;99.90
16995;DHT22;8614;48.522;9.206;2024-02-15T08:30:11;13.50;99.90
16995;DHT22;8614;48.522;9.206;2024-02-15T08:32:38;13.60;99.90
16995;DHT22;8614;48.522;9.206;2024-02-15T08:35:08;13.90;99.90
16995;DHT22;8614;48.522;9.206;2024-02-15T08:37:35;14.30;99.90
16995;DHT22;8614;48.522;9.206;2024-02-15T08:40:05;14.40;99.90
16995;DHT22;8614;48.522;9.206;2024-02-15T08:42:36;14.40;99.90
16995;DHT22;8614;48.522;9.206;2024-02-15T08:45:04;14.30;99.90
16995;DHT22;8614;48.522;9.206;2024-02-15T08:47:36;14.40;99.90
16995;DHT22;8614;48.522;9.206;2024-02-15T08:50:04;14.40;99.90
16995;DHT22;8614;48.522;9.206;2024-02-15T08:52:31;14.40;99.90
16995;DHT22;8614;48.522;9.206;2024-02-15T08:54:58;14.20;99.90
16995;DHT22;8614;48.522;9.206;2024-02-15T08:57:26;14.10;99.90
16995;DHT22;8614;48.522;9.206;2024-02-15T08:59:53;14.00;99.90
16995;DHT22;8614;48.522;9.206;2024-02-15T09:02:20;14.00;99.90
16995;DHT22;8614;48.522;9.206;2024-02-15T09:04:48;14.20;99.90
16995;DHT22;8614;48.522;9.206;2024-02-15T09:07:15;14.20;99.90
16995;DHT22;8614;48.522;9.206;2024-02-15T09:09:42;14.30;99.90
16995;DHT22;8614;48.522;9.206;2024-02-15T09:12:09;14.40;99.90
16995;DHT22;8614;48.522;9.206;2024-02-15T09:14:36;14.50;99.90
16995;DHT22;8614;48.522;9.206;2024-02-15T09:17:04;14.70;99.90
16995;DHT22;8614;48.522;9.206;2024-02-15T09:19:33;14.90;99.90
16995;DHT22;8614;48.522;9.206;2024-02-15T09:22:01;15.10;99.90
16995;DHT22;8614;48.522;9.206;2024-02-15T09:24:30;15.30;99.90
16995;DHT22;8614;48.522;9.206;2024-02-15T09:26:58;15.40;99.90
16995;DHT22;8614;48.522;9.206;2024-02-15T09:29:27;15.60;99.90
16995;DHT22;8614;48.522;9.206;2024-02-15T09:31:55;15.70;99.90
16995;DHT22;8614;48.522;9.206;2024-02-15T09:34:23;15.90;99.90
16995;DHT22;8614;48.522;9.206;2024-02-15T09:36:50;15.90;99.90
16995;DHT22;8614;48.522;9.206;2024-02-15T09:39:18;16.00;99.90
16995;DHT22;8614;48.522;9.206;2024-02-15T09:41:45;16.10;99.90
16995;DHT22;8614;48.522;9.206;2024-02-15T09:44:16;16.10;99.90
16995;DHT22;8614;48.522;9.206;2024-02-15T09:46:43;16.10;99.90
16995;DHT22;8614;48.522;9.206;2024-02-15T09:52:16;16.00;99.90
16995;DHT22;8614;48.522;9.206;2024-02-15T09:54:47;16.10;99.90
16995;DHT22;8614;48.522;9.206;2024-02-15T09:57:22;16.00;99.90
16995;DHT22;8614;48.522;9.206;2024-02-15T09:59:49;16.00;99.90
16995;DHT22;8614;48.522;9.206;2024-02-15T10:09:28;15.80;99.90
16995;DHT22;8614;48.522;9.206;2024-02-15T10:11:57;15.70;99.90
16995;DHT22;8614;48.522;9.206;2024-02-15T10:14:28;15.60;99.90
16995;DHT22;8614;48.522;9.206;2024-02-15T10:16:56;15.60;99.90
16995;DHT22;8614;48.522;9.206;2024-02-15T10:19:23;15.40;99.90
16995;DHT22;8614;48.522;9.206;2024-02-15T10:21:54;15.40;99.90
16995;DHT22;8614;48.522;9.206;2024-02-15T10:24:22;15.30;99.90
16995;DHT22;8614;48.522;9.206;2024-02-15T10:26:50;15.30;99.90
16995;DHT22;8614;48.522;9.206;2024-02-15T10:29:19;15.30;99.90
16995;DHT22;8614;48.522;9.206;2024-02-15T10:31:53;15.30;99.90
16995;DHT22;8614;48.522;9.206;2024-02-15T10:34:20;15.30;99.90
16995;DHT22;8614;48.522;9.206;2024-02-15T10:36:47;15.30;99.90
16995;DHT22;8614;48.522;9.206;2024-02-15T10:39:16;15.30;99.90
16995;DHT22;8614;48.522;9.206;2024-02-15T10:41:49;15.30;99.90
16995;DHT22;8614;48.522;9.206;2024-02-15T10:44:19;15.20;99.90
16995;DHT22;8614;48.522;9.206;2024-02-15T10:46:46;15.30;99.90
16995;DHT22;8614;48.522;9.206;2024-02-15T10:49:17;15.10;99.90
16995;DHT22;8614;48.522;9.206;2024-02-15T10:51:44;15.10;99.90
16995;DHT22;8614;48.522;9.206;2024-02-15T10:54:23;15.00;99.90
16995;DHT22;8614;48.522;9.206;2024-02-15T10:56:54;14.90;99.90
16995;DHT22;8614;48.522;9.206;2024-02-15T11:13:26;15.20;99.90
16995;DHT22;8614;48.522;9.206;2024-02-15T11:16:05;15.30;99.90
16995;DHT22;8614;48.522;9.206;2024-02-15T11:22:57;15.40;99.90
16995;DHT22;8614;48.522;9.206;2024-02-15T11:55:47;15.40;99.90
16995;DHT22;8614;48.522;9.206;2024-02-15T11:58:17;15.50;99.90
16995;DHT22;8614;48.522;9.206;2024-02-15T12:00:47;15.60;99.90
16995;DHT22;8614;48.522;9.206;2024-02-15T12:03:32;15.70;99.90
16995;DHT22;8614;48.522;9.206;2024-02-15T12:06:18;15.70;99.90
16995;DHT22;8614;48.522;9.206;2024-02-15T12:09:02;15.80;99.90
16995;DHT22;8614;48.522;9.206;2024-02-15T12:11:58;15.90;99.90
16995;DHT22;8614;48.522;9.206;2024-02-15T12:14:43;16.00;99.90
16995;DHT22;8614;48.522;9.206;2024-02-15T12:17:27;16.00;99.90
16995;DHT22;8614;48.522;9.206;2024-02-15T12:20:12;16.10;99.90
16995;DHT22;8614;48.522;9.206;2024-02-15T12:22:41;16.10;99.90
16995;DHT22;8614;48.522;9.206;2024-02-15T12:25:14;16.10;99.90
16995;DHT22;8614;48.522;9.206;2024-02-15T12:27:44;16.10;99.90
16995;DHT22;8614;48.522;9.206;2024-02-15T12:30:13;16.10;99.90
16995;DHT22;8614;48.522;9.206;2024-02-15T12:32:41;16.20;99.90
16995;DHT22;8614;48.522;9.206;2024-02-15T12:35:12;16.10;99.90
16995;DHT22;8614;48.522;9.206;2024-02-15T12:37:42;16.20;99.90
16995;DHT22;8614;48.522;9.206;2024-02-15T12:40:12;16.30;99.90
16995;DHT22;8614;48.522;9.206;2024-02-15T12:42:43;16.20;99.90
16995;DHT22;8614;48.522;9.206;2024-02-15T12:45:17;16.30;99.90
16995;DHT22;8614;48.522;9.206;2024-02-15T12:47:47;16.40;99.90
16995;DHT22;8614;48.522;9.206;2024-02-15T12:50:15;16.40;99.90
16995;DHT22;8614;48.522;9.206;2024-02-15T12:52:45;16.50;99.90
16995;DHT22;8614;48.522;9.206;2024-02-15T12:55:17;16.60;99.90
16995;DHT22;8614;48.522;9.206;2024-02-15T12:57:47;16.60;99.90
16995;DHT22;8614;48.522;9.206;2024-02-15T13:00:18;16.60;99.90
16995;DHT22;8614;48.522;9.206;2024-02-15T13:02:47;16.70;99.90
16995;DHT22;8614;48.522;9.206;2024-02-15T13:05:14;16.70;99.90
16995;DHT22;8614;48.522;9.206;2024-02-15T13:07:44;16.70;99.90
16995;DHT22;8614;48.522;9.206;2024-02-15T13:10:11;16.70;99.90
16995;DHT22;8614;48.522;9.206;2024-02-15T13:12:40;16.80;99.90
16995;DHT22;8614;48.522;9.206;2024-02-15T13:15:12;16.80;99.90
16995;DHT22;8614;48.522;9.206;2024-02-15T13:17:40;16.80;99.90
16995;DHT22;8614;48.522;9.206;2024-02-15T13:20:10;16.70;99.90
16995;DHT22;8614;48.522;9.206;2024-02-15T13:22:39;16.80;99.90
16995;DHT22;8614;48.522;9.206;2024-02-15T13:25:07;16.80;99.90
16995;DHT22;8614;48.522;9.206;2024-02-15T13:27:34;16.80;99.90
16995;DHT22;8614;48.522;9.206;2024-02-15T13:30:02;16.90;99.90
16995;DHT22;8614;48.522;9.206;2024-02-15T13:32:30;16.80;99.90
16995;DHT22;8614;48.522;9.206;2024-02-15T13:34:57;16.80;99.90
16995;DHT22;8614;48.522;9.206;2024-02-15T13:37:32;16.90;99.90
16995;DHT22;8614;48.522;9.206;2024-02-15T13:40:00;16.90;99.90
16995;DHT22;8614;48.522;9.206;2024-02-15T13:42:26;16.90;99.90
16995;DHT22;8614;48.522;9.206;2024-02-15T13:44:53;16.90;99.90
16995;DHT22;8614;48.522;9.206;2024-02-15T13:47:21;16.90;99.90
16995;DHT22;8614;48.522;9.206;2024-02-15T13:49:49;16.90;99.90
16995;DHT22;8614;48.522;9.206;2024-02-15T13:52:16;16.90;99.90
16995;DHT22;8614;48.522;9.206;2024-02-15T13:54:43;16.90;99.90
16995;DHT22;8614;48.522;9.206;2024-02-15T13:57:10;17.00;99.90
16995;DHT22;8614;48.522;9.206;2024-02-15T13:59:39;17.00;99.90
16995;DHT22;8614;48.522;9.206;2024-02-15T14:02:06;17.00;99.90
16995;DHT22;8614;48.522;9.206;2024-02-15T14:04:34;17.10;99.90
16995;DHT22;8614;48.522;9.206;2024-02-15T14:07:02;17.10;99.90
16995;DHT22;8614;48.522;9.206;2024-02-15T14:09:29;17.00;99.90
16995;DHT22;8614;48.522;9.206;2024-02-15T14:11:56;16.90;99.90
16995;DHT22;8614;48.522;9.206;2024-02-15T14:14:23;16.90;99.90
16995;DHT22;8614;48.522;9.206;2024-02-15T14:16:53;16.90;99.90
16995;DHT22;8614;48.522;9.206;2024-02-15T14:19:21;16.80;99.90
16995;DHT22;8614;48.522;9.206;2024-02-15T14:21:54;16.80;99.90
16995;DHT22;8614;48.522;9.206;2024-02-15T14:24:26;16.80;99.90
16995;DHT22;8614;48.522;9.206;2024-02-15T14:26:56;16.80;99.90
16995;DHT22;8614;48.522;9.206;2024-02-15T14:29:24;16.80;99.90
16995;DHT22;8614;48.522;9.206;2024-02-15T14:31:58;16.80;99.90
16995;DHT22;8614;48.522;9.206;2024-02-15T14:34:43;16.80;99.90
16995;DHT22;8614;48.522;9.206;2024-02-15T14:37:10;16.90;99.90
16995;DHT22;8614;48.522;9.206;2024-02-15T14:45:05;16.90;99.90
16995;DHT22;8614;48.522;9.206;2024-02-15T14:56:17;16.70;99.90
16995;DHT22;8614;48.522;9.206;2024-02-15T14:58:50;16.80;99.90
16995;DHT22;8614;48.522;9.206;2024-02-15T15:01:41;16.70;99.90
16995;DHT22;8614;48.522;9.206;2024-02-15T15:04:08;16.70;99.90
16995;DHT22;8614;48.522;9.206;2024-02-15T15:06:37;16.70;99.90
16995;DHT22;8614;48.522;9.206;2024-02-15T15:09:22;16.70;99.90
16995;DHT22;8614;48.522;9.206;2024-02-15T15:12:06;16.60;99.90
16995;DHT22;8614;48.522;9.206;2024-02-15T15:14:51;16.60;99.90
16995;DHT22;8614;48.522;9.206;2024-02-15T15:17:19;16.60;99.90
16995;DHT22;8614;48.522;9.206;2024-02-15T15:19:46;16.60;99.90
16995;DHT22;8614;48.522;9.206;2024-02-15T15:22:13;16.50;99.90
16995;DHT22;8614;48.522;9.206;2024-02-15T15:24:40;16.50;99.90
16995;DHT22;8614;48.522;9.206;2024-02-15T15:27:06;16.40;99.90
16995;DHT22;8614;48.522;9.206;2024-02-15T15:29:33;16.30;99.90
16995;DHT22;8614;48.522;9.206;2024-02-15T15:32:03;16.20;99.90
16995;DHT22;8614;48.522;9.206;2024-02-15T15:34:31;16.20;99.90
16995;DHT22;8614;48.522;9.206;2024-02-15T15:36:58;16.10;99.90
16995;DHT22;8614;48.522;9.206;2024-02-15T15:39:25;16.00;99.90
16995;DHT22;8614;48.522;9.206;2024-02-15T15:41:54;15.90;99.90
16995;DHT22;8614;48.522;9.206;2024-02-15T15:44:21;15.80;99.90
16995;DHT22;8614;48.522;9.206;2024-02-15T15:46:52;15.70;99.90
16995;DHT22;8614;48.522;9.206;2024-02-15T15:49:19;15.70;99.90
16995;DHT22;8614;48.522;9.206;2024-02-15T15:51:47;15.60;99.90
16995;DHT22;8614;48.522;9.206;2024-02-15T15:54:15;15.50;99.90
16995;DHT22;8614;48.522;9.206;2024-02-15T15:56:43;15.40;99.90
16995;DHT22;8614;48.522;9.206;2024-02-15T15:59:11;15.30;99.90
16995;DHT22;8614;48.522;9.206;2024-02-15T16:01:38;15.20;99.90
16995;DHT22;8614;48.522;9.206;2024-02-15T16:04:07;15.10;99.90
16995;DHT22;8614;48.522;9.206;2024-02-15T16:06:33;15.00;99.90
16995;DHT22;8614;48.522;9.206;2024-02-15T16:09:01;15.00;99.90
16995;DHT22;8614;48.522;9.206;2024-02-15T16:11:29;14.90;99.90
16995;DHT22;8614;48.522;9.206;2024-02-15T16:13:56;14.80;99.90
16995;DHT22;8614;48.522;9.206;2024-02-15T16:16:23;14.60;99.90
16995;DHT22;8614;48.522;9.206;2024-02-15T16:18:49;14.60;99.90
16995;DHT22;8614;48.522;9.206;2024-02-15T16:21:16;14.40;99.90
16995;DHT22;8614;48.522;9.206;2024-02-15T16:23:44;14.40;99.90
16995;DHT22;8614;48.522;9.206;2024-02-15T16:26:12;14.30;99.90
16995;DHT22;8614;48.522;9.206;2024-02-15T16:28:40;14.20;99.90
16995;DHT22;8614;48.522;9.206;2024-02-15T16:31:07;14.20;99.90
16995;DHT22;8614;48.522;9.206;2024-02-15T16:33:33;14.00;99.90
16995;DHT22;8614;48.522;9.206;2024-02-15T16:36:01;14.00;99.90
16995;DHT22;8614;48.522;9.206;2024-02-15T16:38:28;13.90;99.90
16995;DHT22;8614;48.522;9.206;2024-02-15T16:40:55;13.80;99.90
16995;DHT22;8614;48.522;9.206;2024-02-15T16:43:23;13.70;99.90
16995;DHT22;8614;48.522;9.206;2024-02-15T16:45:53;13.70;99.90
16995;DHT22;8614;48.522;9.206;2024-02-15T16:48:20;13.60;99.90
16995;DHT22;8614;48.522;9.206;2024-02-15T16:50:47;13.50;99.90
16995;DHT22;8614;48.522;9.206;2024-02-15T16:53:14;13.50;99.90
16995;DHT22;8614;48.522;9.206;2024-02-15T16:55:42;13.60;99.90
16995;DHT22;8614;48.522;9.206;2024-02-15T16:58:09;13.50;99.90
16995;DHT22;8614;48.522;9.206;2024-02-15T17:00:37;13.50;99.90
16995;DHT22;8614;48.522;9.206;2024-02-15T17:03:04;13.50;99.90
16995;DHT22;8614;48.522;9.206;2024-02-15T17:05:32;13.40;99.90
16995;DHT22;8614;48.522;9.206;2024-02-15T17:08:01;13.40;99.90
16995;DHT22;8614;48.522;9.206;2024-02-15T17:10:28;13.40;99.90
16995;DHT22;8614;48.522;9.206;2024-02-15T17:12:55;13.40;99.90
16995;DHT22;8614;48.522;9.206;2024-02-15T17:15:23;13.30;99.90
16995;DHT22;8614;48.522;9.206;2024-02-15T17:17:53;13.30;99.90
16995;DHT22;8614;48.522;9.206;2024-02-15T17:20:20;13.20;99.90
16995;DHT22;8614;48.522;9.206;2024-02-15T17:22:49;13.20;99.90
16995;DHT22;8614;48.522;9.206;2024-02-15T17:25:16;13.20;99.90
16995;DHT22;8614;48.522;9.206;2024-02-15T17:27:43;13.10;99.90
16995;DHT22;8614;48.522;9.206;2024-02-15T17:30:11;13.10;99.90
16995;DHT22;8614;48.522;9.206;2024-02-15T17:32:39;13.10;99.90
16995;DHT22;8614;48.522;9.206;2024-02-15T17:35:08;13.10;99.90
16995;DHT22;8614;48.522;9.206;2024-02-15T17:37:39;13.10;99.90
16995;DHT22;8614;48.522;9.206;2024-02-15T17:40:07;13.10;99.90
16995;DHT22;8614;48.522;9.206;2024-02-15T17:42:37;13.10;99.90
16995;DHT22;8614;48.522;9.206;2024-02-15T17:45:05;13.20;99.90
16995;DHT22;8614;48.522;9.206;2024-02-15T17:47:35;13.10;99.90
16995;DHT22;8614;48.522;9.206;2024-02-15T17:50:08;13.10;99.90
16995;DHT22;8614;48.522;9.206;2024-02-15T17:52:39;13.10;99.90
16995;DHT22;8614;48.522;9.206;2024-02-15T17:55:07;13.00;99.90
16995;DHT22;8614;48.522;9.206;2024-02-15T17:57:34;13.10;99.90
16995;DHT22;8614;48.522;9.206;2024-02-15T18:00:29;13.00;99.90
16995;DHT22;8614;48.522;9.206;2024-02-15T18:03:23;13.00;99.90
16995;DHT22;8614;48.522;9.206;2024-02-15T18:05:53;13.00;99.90
16995;DHT22;8614;48.522;9.206;2024-02-15T18:13:46;12.90;99.90
16995;DHT22;8614;48.522;9.206;2024-02-15T18:16:21;12.90;99.90
16995;DHT22;8614;48.522;9.206;2024-02-15T18:18:48;12.90;99.90
16995;DHT22;8614;48.522;9.206;2024-02-15T18:21:16;12.90;99.90
16995;DHT22;8614;48.522;9.206;2024-02-15T18:24:23;12.80;99.90
16995;DHT22;8614;48.522;9.206;2024-02-15T18:26:50;12.70;99.90
16995;DHT22;8614;48.522;9.206;2024-02-15T18:29:18;12.70;99.90
16995;DHT22;8614;48.522;9.206;2024-02-15T18:31:51;12.70;99.90
16995;DHT22;8614;48.522;9.206;2024-02-15T18:34:27;12.60;99.90
16995;DHT22;8614;48.522;9.206;2024-02-15T18:37:04;12.60;99.90
16995;DHT22;8614;48.522;9.206;2024-02-15T18:39:35;12.60;99.90
16995;DHT22;8614;48.522;9.206;2024-02-15T18:42:02;12.50;99.90
16995;DHT22;8614;48.522;9.206;2024-02-15T18:44:49;12.50;99.90
16995;DHT22;8614;48.522;9.206;2024-02-15T18:47:16;12.50;99.90
16995;DHT22;8614;48.522;9.206;2024-02-15T18:50:00;12.40;99.90
16995;DHT22;8614;48.522;9.206;2024-02-15T18:52:59;12.40;99.90
16995;DHT22;8614;48.522;9.206;2024-02-15T18:55:57;12.40;99.90
16995;DHT22;8614;48.522;9.206;2024-02-15T18:58:24;12.30;99.90
16995;DHT22;8614;48.522;9.206;2024-02-15T19:00:59;12.30;99.90
16995;DHT22;8614;48.522;9.206;2024-02-15T19:03:26;12.20;99.90
16995;DHT22;8614;48.522;9.206;2024-02-15T19:05:53;12.10;99.90
16995;DHT22;8614;48.522;9.206;2024-02-15T19:08:24;12.10;99.90
16995;DHT22;8614;48.522;9.206;2024-02-15T19:10:50;12.00;99.90
16995;DHT22;8614;48.522;9.206;2024-02-15T19:13:17;11.90;99.90
16995;DHT22;8614;48.522;9.206;2024-02-15T19:15:48;11.80;99.90
16995;DHT22;8614;48.522;9.206;2024-02-15T19:18:20;11.70;99.90
16995;DHT22;8614;48.522;9.206;2024-02-15T19:20:47;11.60;99.90
16995;DHT22;8614;48.522;9.206;2024-02-15T19:23:14;11.50;99.90
16995;DHT22;8614;48.522;9.206;2024-02-15T19:25:52;11.50;99.90
16995;DHT22;8614;48.522;9.206;2024-02-15T19:28:32;11.40;99.90
16995;DHT22;8614;48.522;9.206;2024-02-15T19:30:59;11.40;99.90
16995;DHT22;8614;48.522;9.206;2024-02-15T19:33:25;11.40;99.90
16995;DHT22;8614;48.522;9.206;2024-02-15T19:35:52;11.40;99.90
16995;DHT22;8614;48.522;9.206;2024-02-15T19:38:19;11.30;99.90
16995;DHT22;8614;48.522;9.206;2024-02-15T19:40:47;11.30;99.90
16995;DHT22;8614;48.522;9.206;2024-02-15T19:43:14;11.20;99.90
16995;DHT22;8614;48.522;9.206;2024-02-15T19:45:41;11.20;99.90
16995;DHT22;8614;48.522;9.206;2024-02-15T19:48:08;11.10;99.90
16995;DHT22;8614;48.522;9.206;2024-02-15T19:50:37;11.20;99.90
16995;DHT22;8614;48.522;9.206;2024-02-15T19:53:04;11.20;99.90
16995;DHT22;8614;48.522;9.206;2024-02-15T19:55:31;11.20;99.90
16995;DHT22;8614;48.522;9.206;2024-02-15T19:57:59;11.20;99.90
16995;DHT22;8614;48.522;9.206;2024-02-15T20:00:26;11.20;99.90
16995;DHT22;8614;48.522;9.206;2024-02-15T20:02:55;11.20;99.90
16995;DHT22;8614;48.522;9.206;2024-02-15T20:05:22;11.20;99.90
16995;DHT22;8614;48.522;9.206;2024-02-15T20:07:49;11.30;99.90
16995;DHT22;8614;48.522;9.206;2024-02-15T20:10:16;11.40;99.90
16995;DHT22;8614;48.522;9.206;2024-02-15T20:12:43;11.60;99.90
16995;DHT22;8614;48.522;9.206;2024-02-15T20:15:12;11.70;99.90
16995;DHT22;8614;48.522;9.206;2024-02-15T20:17:39;11.80;99.90
16995;DHT22;8614;48.522;9.206;2024-02-15T20:20:06;11.80;99.90
16995;DHT22;8614;48.522;9.206;2024-02-15T20:22:34;11.90;99.90
16995;DHT22;8614;48.522;9.206;2024-02-15T20:25:01;12.00;99.90
16995;DHT22;8614;48.522;9.206;2024-02-15T20:27:30;12.00;99.90
16995;DHT22;8614;48.522;9.206;2024-02-15T20:29:58;12.00;99.90
16995;DHT22;8614;48.522;9.206;2024-02-15T20:32:26;12.00;99.90
16995;DHT22;8614;48.522;9.206;2024-02-15T20:34:53;12.10;99.90
16995;DHT22;8614;48.522;9.206;2024-02-15T20:37:20;12.00;99.90
16995;DHT22;8614;48.522;9.206;2024-02-15T20:39:46;12.00;99.90
16995;DHT22;8614;48.522;9.206;2024-02-15T20:42:13;12.00;99.90
16995;DHT22;8614;48.522;9.206;2024-02-15T20:44:41;11.90;99.90
16995;DHT22;8614;48.522;9.206;2024-02-15T20:47:08;11.90;99.90
16995;DHT22;8614;48.522;9.206;2024-02-15T20:49:38;11.90;99.90